sensor_id;sensor_type;location;lat;lon;timestamp;pressure;altitude;pressure_sealevel;temperature;humidity
62617;BME280;62539;51.190;6.808;2023-05-12T00:00:39;101120.66;;;21.03;58.09
62617;BME280;62539;51.190;6.808;2023-05-12T00:03:04;101123.28;;;21.03;58.22
62617;BME280;62539;51.190;6.808;2023-05-12T00:05:30;101122.47;;;21.01;58.29
62617;BME280;62539;51.190;6.808;2023-05-12T00:07:55;101126.00;;;21.02;57.93
62617;BME280;62539;51.190;6.808;2023-05-12T00:10:21;101120.72;;;21.02;58.07
62617;BME280;62539;51.190;6.808;2023-05-12T00:12:47;101118.94;;;21.02;57.99
62617;BME280;62539;51.190;6.808;2023-05-12T00:15:12;101118.09;;;21.02;58.07
62617;BME280;62539;51.190;6.808;2023-05-12T00:17:38;101118.13;;;21.00;58.44
62617;BME280;62539;51.190;6.808;2023-05-12T00:20:04;101120.75;;;21.00;58.35
62617;BME280;62539;51.190;6.808;2023-05-12T00:22:30;101105.88;;;20.99;58.14
62617;BME280;62539;51.190;6.808;2023-05-12T00:24:55;101108.50;;;20.99;58.12
62617;BME280;62539;51.190;6.808;2023-05-12T00:27:21;101103.22;;;20.99;58.35
62617;BME280;62539;51.190;6.808;2023-05-12T00:29:47;101098.88;;;20.98;58.08
62617;BME280;62539;51.190;6.808;2023-05-12T00:32:12;101096.22;;;20.98;58.13
62617;BME280;62539;51.190;6.808;2023-05-12T00:34:37;101092.78;;;20.96;58.33
62617;BME280;62539;51.190;6.808;2023-05-12T00:37:03;101099.78;;;20.97;58.24
62617;BME280;62539;51.190;6.808;2023-05-12T00:39:28;101104.22;;;20.96;57.94
62617;BME280;62539;51.190;6.808;2023-05-12T00:41:55;101110.34;;;20.97;58.22
62617;BME280;62539;51.190;6.808;2023-05-12T00:44:22;101098.06;;;20.96;58.31
62617;BME280;62539;51.190;6.808;2023-05-12T00:46:48;101098.06;;;20.96;58.28
62617;BME280;62539;51.190;6.808;2023-05-12T00:49:14;101099.00;;;20.95;58.23
62617;BME280;62539;51.190;6.808;2023-05-12T00:51:39;101092.88;;;20.94;57.96
62617;BME280;62539;51.190;6.808;2023-05-12T00:54:05;101088.53;;;20.93;57.90
62617;BME280;62539;51.190;6.808;2023-05-12T00:56:31;101088.53;;;20.93;58.03
62617;BME280;62539;51.190;6.808;2023-05-12T00:59:03;101086.81;;;20.92;57.95
62617;BME280;62539;51.190;6.808;2023-05-12T01:01:30;101090.34;;;20.91;58.05
62617;BME280;62539;51.190;6.808;2023-05-12T01:03:56;101083.38;;;20.90;57.90
62617;BME280;62539;51.190;6.808;2023-05-12T01:09:18;101082.50;;;20.90;58.03
62617;BME280;62539;51.190;6.808;2023-05-12T01:11:44;101086.00;;;20.90;57.94
62617;BME280;62539;51.190;6.808;2023-05-12T01:14:10;101086.03;;;20.89;58.21
62617;BME280;62539;51.190;6.808;2023-05-12T01:16:42;101072.94;;;20.87;58.13
62617;BME280;62539;51.190;6.808;2023-05-12T01:19:33;101080.91;;;20.85;58.39
62617;BME280;62539;51.190;6.808;2023-05-12T01:22:06;101078.22;;;20.87;58.25
62617;BME280;62539;51.190;6.808;2023-05-12T01:24:37;101081.81;;;20.84;58.20
62617;BME280;62539;51.190;6.808;2023-05-12T01:27:09;101078.34;;;20.84;58.21
62617;BME280;62539;51.190;6.808;2023-05-12T01:29:36;101090.66;;;20.83;58.39
62617;BME280;62539;51.190;6.808;2023-05-12T01:32:03;101081.88;;;20.83;58.40
62617;BME280;62539;51.190;6.808;2023-05-12T01:34:29;101088.00;;;20.83;58.32
62617;BME280;62539;51.190;6.808;2023-05-12T01:36:54;101086.28;;;20.82;58.34
62617;BME280;62539;51.190;6.808;2023-05-12T01:39:20;101079.28;;;20.81;58.36
62617;BME280;62539;51.190;6.808;2023-05-12T01:41:45;101059.91;;;20.82;58.49
62617;BME280;62539;51.190;6.808;2023-05-12T01:44:10;101034.53;;;20.80;58.07
62617;BME280;62539;51.190;6.808;2023-05-12T01:46:36;101009.03;;;20.80;58.16
62617;BME280;62539;51.190;6.808;2023-05-12T01:49:01;101016.13;;;20.78;58.27
62617;BME280;62539;51.190;6.808;2023-05-12T01:51:26;101033.75;;;20.78;58.20
62617;BME280;62539;51.190;6.808;2023-05-12T01:53:52;101051.31;;;20.77;58.29
62617;BME280;62539;51.190;6.808;2023-05-12T01:56:17;101045.19;;;20.77;58.45
62617;BME280;62539;51.190;6.808;2023-05-12T01:58:43;101047.88;;;20.75;58.05
62617;BME280;62539;51.190;6.808;2023-05-12T02:01:09;101054.00;;;20.76;58.26
62617;BME280;62539;51.190;6.808;2023-05-12T02:03:34;101041.75;;;20.75;58.09
62617;BME280;62539;51.190;6.808;2023-05-12T02:06:01;101046.16;;;20.74;58.35
62617;BME280;62539;51.190;6.808;2023-05-12T02:08:27;101056.69;;;20.74;58.33
62617;BME280;62539;51.190;6.808;2023-05-12T02:11:06;101054.97;;;20.73;58.33
62617;BME280;62539;51.190;6.808;2023-05-12T02:13:32;101054.13;;;20.73;58.36
62617;BME280;62539;51.190;6.808;2023-05-12T02:15:58;101048.84;;;20.73;58.37
62617;BME280;62539;51.190;6.808;2023-05-12T02:18:24;101039.22;;;20.71;58.34
62617;BME280;62539;51.190;6.808;2023-05-12T02:20:50;101043.63;;;20.71;58.31
62617;BME280;62539;51.190;6.808;2023-05-12T02:23:15;101041.88;;;20.71;58.20
62617;BME280;62539;51.190;6.808;2023-05-12T02:25:40;101047.19;;;20.70;58.20
62617;BME280;62539;51.190;6.808;2023-05-12T02:28:06;101049.81;;;20.70;58.38
62617;BME280;62539;51.190;6.808;2023-05-12T02:30:36;101058.66;;;20.69;58.46
62617;BME280;62539;51.190;6.808;2023-05-12T02:33:02;101068.34;;;20.68;58.47
62617;BME280;62539;51.190;6.808;2023-05-12T02:35:29;101067.47;;;20.68;58.30
62617;BME280;62539;51.190;6.808;2023-05-12T02:37:55;101072.75;;;20.68;58.48
62617;BME280;62539;51.190;6.808;2023-05-12T02:40:21;101074.47;;;20.69;58.36
62617;BME280;62539;51.190;6.808;2023-05-12T02:42:46;101071.03;;;20.67;58.20
62617;BME280;62539;51.190;6.808;2023-05-12T02:45:12;101073.66;;;20.67;58.15
62617;BME280;62539;51.190;6.808;2023-05-12T02:47:37;101069.31;;;20.66;58.31
62617;BME280;62539;51.190;6.808;2023-05-12T02:50:03;101079.00;;;20.65;58.13
62617;BME280;62539;51.190;6.808;2023-05-12T02:52:29;101076.38;;;20.65;58.14
62617;BME280;62539;51.190;6.808;2023-05-12T02:54:55;101075.50;;;20.65;58.40
62617;BME280;62539;51.190;6.808;2023-05-12T02:57:21;101068.50;;;20.64;58.33
62617;BME280;62539;51.190;6.808;2023-05-12T02:59:46;101070.31;;;20.63;58.40
62617;BME280;62539;51.190;6.808;2023-05-12T03:02:12;101069.38;;;20.64;57.96
62617;BME280;62539;51.190;6.808;2023-05-12T03:04:37;101075.59;;;20.63;58.19
62617;BME280;62539;51.190;6.808;2023-05-12T03:07:03;101064.16;;;20.63;58.37
62617;BME280;62539;51.190;6.808;2023-05-12T03:09:28;101067.72;;;20.62;58.16
62617;BME280;62539;51.190;6.808;2023-05-12T03:11:54;101069.44;;;20.63;58.32
62617;BME280;62539;51.190;6.808;2023-05-12T03:14:19;101075.63;;;20.62;58.31
62617;BME280;62539;51.190;6.808;2023-05-12T03:16:45;101078.25;;;20.62;58.42
62617;BME280;62539;51.190;6.808;2023-05-12T03:19:10;101073.00;;;20.62;58.12
62617;BME280;62539;51.190;6.808;2023-05-12T03:21:36;101072.16;;;20.61;58.29
62617;BME280;62539;51.190;6.808;2023-05-12T03:24:01;101073.00;;;20.62;58.27
62617;BME280;62539;51.190;6.808;2023-05-12T03:26:27;101073.91;;;20.61;58.17
62617;BME280;62539;51.190;6.808;2023-05-12T03:28:52;101067.78;;;20.60;58.39
62617;BME280;62539;51.190;6.808;2023-05-12T03:31:18;101073.06;;;20.60;58.28
62617;BME280;62539;51.190;6.808;2023-05-12T03:33:43;101066.91;;;20.60;58.24
62617;BME280;62539;51.190;6.808;2023-05-12T03:36:09;101070.44;;;20.60;58.29
62617;BME280;62539;51.190;6.808;2023-05-12T03:38:34;101074.81;;;20.60;58.40
62617;BME280;62539;51.190;6.808;2023-05-12T03:41:06;101073.09;;;20.59;58.44
62617;BME280;62539;51.190;6.808;2023-05-12T03:43:32;101069.56;;;20.60;58.43
62617;BME280;62539;51.190;6.808;2023-05-12T03:45:58;101069.56;;;20.60;58.14
62617;BME280;62539;51.190;6.808;2023-05-12T03:48:24;101062.63;;;20.57;58.35
62617;BME280;62539;51.190;6.808;2023-05-12T03:50:50;101067.84;;;20.59;58.45
62617;BME280;62539;51.190;6.808;2023-05-12T03:53:15;101069.63;;;20.58;58.40
62617;BME280;62539;51.190;6.808;2023-05-12T03:55:40;101070.47;;;20.59;57.93
62617;BME280;62539;51.190;6.808;2023-05-12T03:58:06;101072.25;;;20.58;58.41
62617;BME280;62539;51.190;6.808;2023-05-12T04:00:32;101069.66;;;20.56;58.40
62617;BME280;62539;51.190;6.808;2023-05-12T04:02:58;101071.38;;;20.58;58.20
62617;BME280;62539;51.190;6.808;2023-05-12T04:05:24;101071.38;;;20.58;58.37
62617;BME280;62539;51.190;6.808;2023-05-12T04:07:49;101078.44;;;20.57;58.25
62617;BME280;62539;51.190;6.808;2023-05-12T04:10:15;101080.22;;;20.56;58.32
62617;BME280;62539;51.190;6.808;2023-05-12T04:12:40;101087.19;;;20.58;58.35
62617;BME280;62539;51.190;6.808;2023-05-12T04:15:06;101085.47;;;20.56;58.38
62617;BME280;62539;51.190;6.808;2023-05-12T04:17:32;101088.13;;;20.56;58.27
62617;BME280;62539;51.190;6.808;2023-05-12T04:19:58;101092.47;;;20.58;58.25
62617;BME280;62539;51.190;6.808;2023-05-12T04:22:24;101097.75;;;20.58;58.01
62617;BME280;62539;51.190;6.808;2023-05-12T04:24:50;101096.91;;;20.57;58.31
62617;BME280;62539;51.190;6.808;2023-05-12T04:27:15;101093.38;;;20.56;58.11
62617;BME280;62539;51.190;6.808;2023-05-12T04:29:41;101103.00;;;20.58;58.26
62617;BME280;62539;51.190;6.808;2023-05-12T04:32:06;101101.28;;;20.56;58.20
62617;BME280;62539;51.190;6.808;2023-05-12T04:34:32;101103.00;;;20.58;58.12
62617;BME280;62539;51.190;6.808;2023-05-12T04:36:57;101100.44;;;20.56;58.19
62617;BME280;62539;51.190;6.808;2023-05-12T04:39:23;101104.84;;;20.55;58.33
62617;BME280;62539;51.190;6.808;2023-05-12T04:41:48;101112.75;;;20.55;58.38
62617;BME280;62539;51.190;6.808;2023-05-12T04:44:14;101115.38;;;20.55;58.11
62617;BME280;62539;51.190;6.808;2023-05-12T04:46:39;101116.31;;;20.54;58.15
62617;BME280;62539;51.190;6.808;2023-05-12T04:49:05;101117.19;;;20.55;58.41
62617;BME280;62539;51.190;6.808;2023-05-12T04:51:30;101126.81;;;20.56;58.29
62617;BME280;62539;51.190;6.808;2023-05-12T04:53:56;101131.22;;;20.55;58.40
62617;BME280;62539;51.190;6.808;2023-05-12T04:56:21;101132.09;;;20.56;58.46
62617;BME280;62539;51.190;6.808;2023-05-12T04:58:47;101137.34;;;20.56;58.13
62617;BME280;62539;51.190;6.808;2023-05-12T05:01:13;101137.34;;;20.56;58.16
62617;BME280;62539;51.190;6.808;2023-05-12T05:03:39;101140.84;;;20.56;58.06
62617;BME280;62539;51.190;6.808;2023-05-12T05:06:05;101143.47;;;20.56;58.06
62617;BME280;62539;51.190;6.808;2023-05-12T05:08:30;101145.19;;;20.58;58.10
62617;BME280;62539;51.190;6.808;2023-05-12T05:10:56;101160.09;;;20.59;58.07
62617;BME280;62539;51.190;6.808;2023-05-12T05:13:22;101153.91;;;20.60;58.20
62617;BME280;62539;51.190;6.808;2023-05-12T05:15:51;101165.31;;;20.60;58.17
62617;BME280;62539;51.190;6.808;2023-05-12T05:18:17;101169.72;;;20.60;58.49
62617;BME280;62539;51.190;6.808;2023-05-12T05:20:43;101166.16;;;20.61;58.35
62617;BME280;62539;51.190;6.808;2023-05-12T05:23:09;101166.16;;;20.61;58.30
62617;BME280;62539;51.190;6.808;2023-05-12T05:25:35;101168.78;;;20.61;58.24
62617;BME280;62539;51.190;6.808;2023-05-12T05:28:01;101175.78;;;20.62;58.35
62617;BME280;62539;51.190;6.808;2023-05-12T05:30:27;101172.31;;;20.61;58.20
62617;BME280;62539;51.190;6.808;2023-05-12T05:32:53;101171.44;;;20.61;58.10
62617;BME280;62539;51.190;6.808;2023-05-12T05:35:18;101181.97;;;20.61;58.38
62617;BME280;62539;51.190;6.808;2023-05-12T05:37:44;101178.44;;;20.62;57.89
62617;BME280;62539;51.190;6.808;2023-05-12T05:40:09;101180.13;;;20.63;58.17
62617;BME280;62539;51.190;6.808;2023-05-12T05:42:35;101186.28;;;20.63;58.42
62617;BME280;62539;51.190;6.808;2023-05-12T05:45:00;101192.41;;;20.64;58.27
62617;BME280;62539;51.190;6.808;2023-05-12T05:47:26;101188.00;;;20.64;58.33
62617;BME280;62539;51.190;6.808;2023-05-12T05:49:52;101204.66;;;20.65;58.39
62617;BME280;62539;51.190;6.808;2023-05-12T05:52:19;101202.03;;;20.65;58.25
62617;BME280;62539;51.190;6.808;2023-05-12T05:54:44;101204.63;;;20.66;58.34
62617;BME280;62539;51.190;6.808;2023-05-12T05:57:10;101202.84;;;20.67;58.18
62617;BME280;62539;51.190;6.808;2023-05-12T05:59:35;101209.00;;;20.67;58.25
62617;BME280;62539;51.190;6.808;2023-05-12T06:02:00;101214.19;;;20.69;58.63
62617;BME280;62539;51.190;6.808;2023-05-12T06:04:26;101215.00;;;20.71;58.65
62617;BME280;62539;51.190;6.808;2023-05-12T06:06:51;101214.03;;;20.74;58.81
62617;BME280;62539;51.190;6.808;2023-05-12T06:09:17;101218.31;;;20.76;58.96
62617;BME280;62539;51.190;6.808;2023-05-12T06:11:42;101225.22;;;20.80;59.06
62617;BME280;62539;51.190;6.808;2023-05-12T06:14:08;101227.81;;;20.82;58.95
62617;BME280;62539;51.190;6.808;2023-05-12T06:16:34;101233.03;;;20.83;58.85
62617;BME280;62539;51.190;6.808;2023-05-12T06:18:59;101236.47;;;20.85;59.19
62617;BME280;62539;51.190;6.808;2023-05-12T06:21:24;101239.00;;;20.89;59.27
62617;BME280;62539;51.190;6.808;2023-05-12T06:23:50;101237.16;;;20.91;59.11
62617;BME280;62539;51.190;6.808;2023-05-12T06:26:15;101237.03;;;20.94;58.70
62617;BME280;62539;51.190;6.808;2023-05-12T06:28:41;101236.94;;;20.97;58.69
62617;BME280;62539;51.190;6.808;2023-05-12T06:31:07;101234.25;;;20.98;58.64
62617;BME280;62539;51.190;6.808;2023-05-12T06:33:33;101240.25;;;21.02;58.72
62617;BME280;62539;51.190;6.808;2023-05-12T06:35:58;101243.78;;;21.03;58.69
62617;BME280;62539;51.190;6.808;2023-05-12T06:38:24;101237.50;;;21.05;58.91
62617;BME280;62539;51.190;6.808;2023-05-12T06:40:49;101248.84;;;21.07;58.40
62617;BME280;62539;51.190;6.808;2023-05-12T06:43:14;101254.94;;;21.09;58.76
62617;BME280;62539;51.190;6.808;2023-05-12T06:45:40;101257.47;;;21.12;58.48
62617;BME280;62539;51.190;6.808;2023-05-12T06:48:05;101255.63;;;21.14;58.59
62617;BME280;62539;51.190;6.808;2023-05-12T06:50:31;101256.44;;;21.17;58.45
62617;BME280;62539;51.190;6.808;2023-05-12T06:52:56;101259.88;;;21.19;58.12
62617;BME280;62539;51.190;6.808;2023-05-12T06:55:22;101271.22;;;21.21;58.29
62617;BME280;62539;51.190;6.808;2023-05-12T06:57:47;101270.22;;;21.23;58.13
62617;BME280;62539;51.190;6.808;2023-05-12T07:00:15;101271.94;;;21.24;57.92
62617;BME280;62539;51.190;6.808;2023-05-12T07:02:41;101276.25;;;21.27;58.14
62617;BME280;62539;51.190;6.808;2023-05-12T07:05:07;101272.72;;;21.28;57.65
62617;BME280;62539;51.190;6.808;2023-05-12T07:07:32;101270.00;;;21.29;57.96
62617;BME280;62539;51.190;6.808;2023-05-12T07:09:59;101277.88;;;21.31;57.93
62617;BME280;62539;51.190;6.808;2023-05-12T07:12:25;101277.75;;;21.34;57.93
62617;BME280;62539;51.190;6.808;2023-05-12T07:14:50;101286.47;;;21.36;57.57
62617;BME280;62539;51.190;6.808;2023-05-12T07:17:15;101279.34;;;21.38;57.56
62617;BME280;62539;51.190;6.808;2023-05-12T07:19:41;101275.78;;;21.39;57.61
62617;BME280;62539;51.190;6.808;2023-05-12T07:22:07;101280.16;;;21.40;57.84
62617;BME280;62539;51.190;6.808;2023-05-12T07:24:33;101283.59;;;21.42;57.47
62617;BME280;62539;51.190;6.808;2023-05-12T07:26:58;101287.03;;;21.44;57.67
62617;BME280;62539;51.190;6.808;2023-05-12T07:29:23;101292.25;;;21.46;57.53
62617;BME280;62539;51.190;6.808;2023-05-12T07:31:49;101284.28;;;21.48;57.27
62617;BME280;62539;51.190;6.808;2023-05-12T07:34:14;101292.13;;;21.49;57.58
62617;BME280;62539;51.190;6.808;2023-05-12T07:36:40;101295.56;;;21.51;57.30
62617;BME280;62539;51.190;6.808;2023-05-12T07:39:05;101287.59;;;21.53;57.39
62617;BME280;62539;51.190;6.808;2023-05-12T07:41:31;101291.97;;;21.54;57.32
62617;BME280;62539;51.190;6.808;2023-05-12T07:43:56;101298.03;;;21.56;57.37
62617;BME280;62539;51.190;6.808;2023-05-12T07:46:22;101294.41;;;21.58;57.34
62617;BME280;62539;51.190;6.808;2023-05-12T07:48:47;101299.63;;;21.60;56.95
62617;BME280;62539;51.190;6.808;2023-05-12T07:51:12;101296.91;;;21.62;57.18
62617;BME280;62539;51.190;6.808;2023-05-12T07:53:38;101300.44;;;21.62;56.85
62617;BME280;62539;51.190;6.808;2023-05-12T07:56:03;101301.28;;;21.64;56.83
62617;BME280;62539;51.190;6.808;2023-05-12T07:58:29;101296.78;;;21.66;57.18
62617;BME280;62539;51.190;6.808;2023-05-12T08:00:55;101302.88;;;21.68;56.87
62617;BME280;62539;51.190;6.808;2023-05-12T08:03:23;101301.03;;;21.70;57.09
62617;BME280;62539;51.190;6.808;2023-05-12T08:05:48;101307.16;;;21.71;56.76
62617;BME280;62539;51.190;6.808;2023-05-12T08:08:13;101311.47;;;21.73;57.05
62617;BME280;62539;51.190;6.808;2023-05-12T08:10:43;101309.69;;;21.74;56.99
62617;BME280;62539;51.190;6.808;2023-05-12T08:13:09;101317.56;;;21.76;56.82
62617;BME280;62539;51.190;6.808;2023-05-12T08:15:34;101313.88;;;21.80;57.01
62617;BME280;62539;51.190;6.808;2023-05-12T08:18:00;101313.78;;;21.81;56.79
62617;BME280;62539;51.190;6.808;2023-05-12T08:20:25;101321.66;;;21.83;56.89
62617;BME280;62539;51.190;6.808;2023-05-12T08:22:51;101321.66;;;21.83;56.61
62617;BME280;62539;51.190;6.808;2023-05-12T08:25:16;101330.41;;;21.85;56.66
62617;BME280;62539;51.190;6.808;2023-05-12T08:27:42;101329.41;;;21.87;56.53
62617;BME280;62539;51.190;6.808;2023-05-12T08:30:08;101336.34;;;21.90;56.61
62617;BME280;62539;51.190;6.808;2023-05-12T08:32:34;101334.56;;;21.91;56.60
62617;BME280;62539;51.190;6.808;2023-05-12T08:35:00;101338.88;;;21.93;56.62
62617;BME280;62539;51.190;6.808;2023-05-12T08:37:25;101341.38;;;21.96;56.79
62617;BME280;62539;51.190;6.808;2023-05-12T08:39:51;101342.13;;;22.00;56.76
62617;BME280;62539;51.190;6.808;2023-05-12T08:42:29;101347.34;;;22.01;56.53
62617;BME280;62539;51.190;6.808;2023-05-12T08:45:14;101346.31;;;22.06;56.49
62617;BME280;62539;51.190;6.808;2023-05-12T08:47:40;101346.31;;;22.06;56.28
62617;BME280;62539;51.190;6.808;2023-05-12T08:50:08;101347.94;;;22.08;56.29
62617;BME280;62539;51.190;6.808;2023-05-12T08:52:34;101354.91;;;22.11;56.53
62617;BME280;62539;51.190;6.808;2023-05-12T08:55:01;101350.41;;;22.13;56.04
62617;BME280;62539;51.190;6.808;2023-05-12T08:57:27;101352.06;;;22.15;56.06
62617;BME280;62539;51.190;6.808;2023-05-12T08:59:55;101359.81;;;22.20;56.31
62617;BME280;62539;51.190;6.808;2023-05-12T09:02:23;101353.59;;;22.21;56.01
62617;BME280;62539;51.190;6.808;2023-05-12T09:04:51;101351.75;;;22.23;56.29
62617;BME280;62539;51.190;6.808;2023-05-12T09:07:20;101360.41;;;22.27;56.07
62617;BME280;62539;51.190;6.808;2023-05-12T09:09:57;101361.28;;;22.27;56.19
62617;BME280;62539;51.190;6.808;2023-05-12T09:12:30;101355.06;;;22.28;55.79
62617;BME280;62539;51.190;6.808;2023-05-12T09:15:06;101365.66;;;22.28;55.87
62617;BME280;62539;51.190;6.808;2023-05-12T09:17:35;101366.44;;;22.30;55.80
62617;BME280;62539;51.190;6.808;2023-05-12T09:20:00;101366.38;;;22.32;56.05
62617;BME280;62539;51.190;6.808;2023-05-12T09:22:29;101364.59;;;22.32;55.85
62617;BME280;62539;51.190;6.808;2023-05-12T09:24:55;101365.41;;;22.35;56.11
62617;BME280;62539;51.190;6.808;2023-05-12T09:27:27;101363.56;;;22.37;55.90
62617;BME280;62539;51.190;6.808;2023-05-12T09:29:55;101370.56;;;22.38;55.61
62617;BME280;62539;51.190;6.808;2023-05-12T09:32:33;101366.13;;;22.38;55.89
62617;BME280;62539;51.190;6.808;2023-05-12T09:35:07;101375.72;;;22.41;55.52
62617;BME280;62539;51.190;6.808;2023-05-12T09:37:37;101369.50;;;22.42;55.96
62617;BME280;62539;51.190;6.808;2023-05-12T09:40:06;101376.50;;;22.43;55.46
62617;BME280;62539;51.190;6.808;2023-05-12T09:42:34;101379.06;;;22.46;55.43
62617;BME280;62539;51.190;6.808;2023-05-12T09:45:06;101371.94;;;22.48;55.43
62617;BME280;62539;51.190;6.808;2023-05-12T09:47:39;101371.66;;;22.54;55.19
62617;BME280;62539;51.190;6.808;2023-05-12T09:50:06;101375.09;;;22.56;55.09
62617;BME280;62539;51.190;6.808;2023-05-12T09:52:38;101367.84;;;22.61;55.39
62617;BME280;62539;51.190;6.808;2023-05-12T09:55:09;101378.28;;;22.65;55.13
62617;BME280;62539;51.190;6.808;2023-05-12T09:57:39;101371.94;;;22.69;55.24
62617;BME280;62539;51.190;6.808;2023-05-12T10:00:11;101362.03;;;22.74;55.12
62617;BME280;62539;51.190;6.808;2023-05-12T10:02:39;101354.88;;;22.76;54.79
62617;BME280;62539;51.190;6.808;2023-05-12T10:05:19;101361.03;;;22.76;55.02
62617;BME280;62539;51.190;6.808;2023-05-12T10:07:48;101359.16;;;22.79;54.59
62617;BME280;62539;51.190;6.808;2023-05-12T10:10:20;101360.84;;;22.81;54.86
62617;BME280;62539;51.190;6.808;2023-05-12T10:12:48;101357.19;;;22.84;55.02
62617;BME280;62539;51.190;6.808;2023-05-12T10:15:15;101356.22;;;22.86;54.88
62617;BME280;62539;51.190;6.808;2023-05-12T10:17:43;101362.28;;;22.88;54.65
62617;BME280;62539;51.190;6.808;2023-05-12T10:20:10;101362.22;;;22.90;54.70
62617;BME280;62539;51.190;6.808;2023-05-12T10:22:38;101358.50;;;22.94;54.21
62617;BME280;62539;51.190;6.808;2023-05-12T10:25:05;101359.25;;;22.98;54.31
62617;BME280;62539;51.190;6.808;2023-05-12T10:27:35;101354.75;;;23.00;54.23
62617;BME280;62539;51.190;6.808;2023-05-12T10:30:02;101354.66;;;23.01;54.55
62617;BME280;62539;51.190;6.808;2023-05-12T10:32:29;101354.53;;;23.04;54.39
62617;BME280;62539;51.190;6.808;2023-05-12T10:34:54;101354.47;;;23.06;54.10
62617;BME280;62539;51.190;6.808;2023-05-12T10:37:31;101351.69;;;23.09;54.30
62617;BME280;62539;51.190;6.808;2023-05-12T10:39:59;101354.19;;;23.12;53.87
62617;BME280;62539;51.190;6.808;2023-05-12T10:42:39;101364.56;;;23.17;53.71
62617;BME280;62539;51.190;6.808;2023-05-12T10:45:17;101360.16;;;23.17;53.70
62617;BME280;62539;51.190;6.808;2023-05-12T10:47:45;101354.84;;;23.17;53.83
62617;BME280;62539;51.190;6.808;2023-05-12T10:50:11;101352.19;;;23.17;54.06
62617;BME280;62539;51.190;6.808;2023-05-12T10:52:52;101353.13;;;23.16;54.00
62617;BME280;62539;51.190;6.808;2023-05-12T10:55:29;101348.69;;;23.17;53.72
62617;BME280;62539;51.190;6.808;2023-05-12T10:58:08;101337.13;;;23.19;53.69
62617;BME280;62539;51.190;6.808;2023-05-12T11:00:45;101343.09;;;23.25;53.68
62617;BME280;62539;51.190;6.808;2023-05-12T11:03:15;101347.31;;;23.29;53.78
62617;BME280;62539;51.190;6.808;2023-05-12T11:05:57;101341.00;;;23.31;53.31
62617;BME280;62539;51.190;6.808;2023-05-12T11:08:24;101339.16;;;23.33;53.75
62617;BME280;62539;51.190;6.808;2023-05-12T11:10:50;101347.19;;;23.32;53.59
62617;BME280;62539;51.190;6.808;2023-05-12T11:13:15;101354.31;;;23.30;53.78
62617;BME280;62539;51.190;6.808;2023-05-12T11:15:43;101351.81;;;23.27;53.59
62617;BME280;62539;51.190;6.808;2023-05-12T11:18:09;101353.69;;;23.25;54.00
62617;BME280;62539;51.190;6.808;2023-05-12T11:20:36;101358.16;;;23.23;53.62
62617;BME280;62539;51.190;6.808;2023-05-12T11:23:02;101362.72;;;23.19;53.99
62617;BME280;62539;51.190;6.808;2023-05-12T11:25:28;101366.28;;;23.18;54.08
62617;BME280;62539;51.190;6.808;2023-05-12T11:27:53;101361.00;;;23.18;54.06
62617;BME280;62539;51.190;6.808;2023-05-12T11:30:19;101372.31;;;23.22;53.82
62617;BME280;62539;51.190;6.808;2023-05-12T11:32:45;101378.16;;;23.30;53.51
62617;BME280;62539;51.190;6.808;2023-05-12T11:35:12;101377.88;;;23.36;53.64
62617;BME280;62539;51.190;6.808;2023-05-12T11:37:41;101371.38;;;23.43;53.06
62617;BME280;62539;51.190;6.808;2023-05-12T11:40:19;101369.66;;;23.42;53.30
62617;BME280;62539;51.190;6.808;2023-05-12T11:42:49;101371.38;;;23.43;53.04
62617;BME280;62539;51.190;6.808;2023-05-12T11:45:21;101364.28;;;23.44;53.55
62617;BME280;62539;51.190;6.808;2023-05-12T11:47:49;101369.09;;;23.55;53.06
62617;BME280;62539;51.190;6.808;2023-05-12T11:50:22;101366.00;;;23.64;52.59
62617;BME280;62539;51.190;6.808;2023-05-12T11:52:48;101368.22;;;23.73;52.85
62617;BME280;62539;51.190;6.808;2023-05-12T11:55:22;101369.50;;;23.84;52.31
62617;BME280;62539;51.190;6.808;2023-05-12T11:57:57;101362.16;;;23.89;52.28
62617;BME280;62539;51.190;6.808;2023-05-12T12:00:32;101365.13;;;23.83;52.30
62617;BME280;62539;51.190;6.808;2023-05-12T12:03:10;101371.53;;;23.78;52.33
62617;BME280;62539;51.190;6.808;2023-05-12T12:05:37;101376.97;;;23.75;52.67
62617;BME280;62539;51.190;6.808;2023-05-12T12:08:08;101371.88;;;23.71;52.74
62617;BME280;62539;51.190;6.808;2023-05-12T12:10:42;101379.09;;;23.67;52.82
62617;BME280;62539;51.190;6.808;2023-05-12T12:13:09;101373.97;;;23.64;53.02
62617;BME280;62539;51.190;6.808;2023-05-12T12:15:34;101378.22;;;23.67;53.41
62617;BME280;62539;51.190;6.808;2023-05-12T12:17:59;101373.81;;;23.67;53.47
62617;BME280;62539;51.190;6.808;2023-05-12T12:20:25;101380.69;;;23.71;53.12
62617;BME280;62539;51.190;6.808;2023-05-12T12:22:51;101383.09;;;23.76;52.88
62617;BME280;62539;51.190;6.808;2023-05-12T12:25:17;101385.69;;;23.77;52.93
62617;BME280;62539;51.190;6.808;2023-05-12T12:27:44;101383.19;;;23.74;52.74
62617;BME280;62539;51.190;6.808;2023-05-12T12:30:09;101381.53;;;23.72;53.19
62617;BME280;62539;51.190;6.808;2023-05-12T12:32:35;101379.91;;;23.69;53.05
62617;BME280;62539;51.190;6.808;2023-05-12T12:35:01;101385.06;;;23.72;53.12
62617;BME280;62539;51.190;6.808;2023-05-12T12:37:30;101377.25;;;23.69;53.53
62617;BME280;62539;51.190;6.808;2023-05-12T12:39:56;101380.09;;;23.64;53.47
62617;BME280;62539;51.190;6.808;2023-05-12T12:42:21;101385.53;;;23.61;53.27
62617;BME280;62539;51.190;6.808;2023-05-12T12:44:47;101393.56;;;23.60;53.35
62617;BME280;62539;51.190;6.808;2023-05-12T12:47:14;101387.34;;;23.61;53.87
62617;BME280;62539;51.190;6.808;2023-05-12T12:49:40;101392.50;;;23.64;53.54
62617;BME280;62539;51.190;6.808;2023-05-12T12:52:05;101385.97;;;23.71;53.29